createdAt,value
2022-11-30T00:02:40.570Z,6.16
2022-11-30T00:07:42.890Z,6.19
2022-11-30T00:12:44.783Z,6.01
2022-11-30T00:17:47.703Z,6.29
2022-11-30T00:22:49.708Z,6.30
2022-11-30T00:27:52.312Z,5.83
2022-11-30T00:32:57.907Z,6.25
2022-11-30T00:38:03.163Z,6.20
2022-11-30T00:43:05.033Z,6.02
2022-11-30T00:48:07.031Z,6.23
2022-11-30T00:53:08.980Z,6.09
2022-11-30T00:58:12.025Z,5.98
2022-11-30T01:03:15.676Z,6.10
2022-11-30T01:08:17.810Z,5.67
2022-11-30T01:13:19.768Z,5.98
2022-11-30T01:18:21.831Z,6.10
2022-11-30T01:23:23.702Z,6.36
2022-11-30T01:28:25.751Z,6.20
2022-11-30T01:33:27.706Z,5.95
2022-11-30T01:38:38.867Z,6.12
2022-11-30T01:43:41.236Z,5.94
2022-11-30T01:48:43.280Z,5.95
2022-11-30T01:53:45.614Z,5.92
2022-11-30T01:58:54.175Z,5.95
2022-11-30T02:04:11.093Z,5.99
2022-11-30T02:09:13.836Z,6.23
2022-11-30T02:14:56.393Z,6.37
2022-11-30T02:19:58.395Z,6.44
2022-11-30T02:25:20.253Z,6.41
2022-11-30T02:30:23.673Z,6.30
2022-11-30T02:35:30.265Z,6.28
2022-11-30T02:40:32.500Z,6.27
2022-11-30T02:46:05.288Z,6.04
2022-11-30T02:51:10.656Z,6.09
2022-11-30T02:56:12.637Z,5.87
2022-11-30T03:01:14.664Z,6.16
2022-11-30T03:06:16.626Z,6.25
2022-11-30T03:11:18.451Z,6.34
2022-11-30T03:16:20.440Z,5.96
2022-11-30T03:21:22.387Z,6.16
2022-11-30T03:26:24.311Z,6.39
2022-11-30T03:31:26.394Z,6.22
2022-11-30T03:36:28.331Z,6.14
2022-11-30T03:41:30.305Z,6.07
2022-11-30T03:46:32.251Z,6.00
2022-11-30T03:51:34.420Z,6.25
2022-11-30T03:56:36.422Z,6.43
2022-11-30T04:01:40.940Z,6.34
2022-11-30T04:06:42.923Z,6.19
2022-11-30T04:11:44.803Z,6.20
2022-11-30T04:16:46.694Z,6.46
2022-11-30T04:21:48.613Z,6.28
2022-11-30T04:26:50.577Z,6.35
2022-11-30T04:31:52.615Z,6.28
2022-11-30T04:36:59.968Z,6.30
2022-11-30T04:42:02.285Z,6.24
2022-11-30T04:47:04.279Z,6.25
2022-11-30T04:52:06.246Z,6.23
2022-11-30T04:57:08.147Z,6.31
2022-11-30T05:02:10.469Z,6.31
2022-11-30T05:07:12.406Z,6.44
2022-11-30T05:12:14.267Z,6.24
2022-11-30T05:17:16.230Z,6.21
2022-11-30T05:22:18.169Z,6.30
2022-11-30T05:27:22.660Z,5.89
2022-11-30T05:32:25.019Z,5.74
2022-11-30T05:37:27.065Z,5.84
2022-11-30T05:42:28.965Z,6.04
2022-11-30T05:47:30.837Z,5.61
2022-11-30T05:52:32.763Z,5.77
2022-11-30T05:57:39.335Z,5.87
2022-11-30T06:02:41.584Z,5.83
2022-11-30T06:07:43.788Z,5.70
2022-11-30T06:12:46.347Z,5.70
2022-11-30T06:17:48.256Z,5.68
2022-11-30T06:22:50.263Z,5.67
2022-11-30T06:27:53.051Z,5.82
2022-11-30T06:33:01.118Z,5.55
2022-11-30T06:38:05.459Z,5.87
2022-11-30T06:43:07.419Z,5.69
2022-11-30T06:48:09.632Z,5.80
2022-11-30T06:53:11.493Z,5.78
2022-11-30T06:58:13.357Z,5.76
2022-11-30T07:03:15.488Z,6.10
2022-11-30T07:08:18.083Z,6.05
2022-11-30T07:13:20.093Z,5.81
2022-11-30T07:18:24.788Z,5.90
2022-11-30T07:23:55.875Z,5.81
2022-11-30T07:28:59.040Z,6.24
2022-11-30T07:34:07.102Z,6.39
2022-11-30T07:39:08.963Z,6.38
2022-11-30T07:44:14.133Z,6.33
2022-11-30T07:49:16.328Z,6.28
2022-11-30T07:54:18.297Z,6.27
2022-11-30T07:59:20.220Z,6.41
2022-11-30T08:04:22.272Z,6.28
2022-11-30T08:09:24.332Z,6.20
2022-11-30T08:14:27.231Z,5.83
2022-11-30T08:19:29.160Z,6.15
2022-11-30T08:24:31.237Z,6.22
2022-11-30T08:29:33.350Z,6.12
2022-11-30T08:34:35.571Z,6.21
2022-11-30T08:39:37.563Z,6.40
2022-11-30T08:44:39.604Z,6.36
2022-11-30T08:49:41.831Z,6.28
2022-11-30T08:54:45.885Z,6.63
2022-11-30T08:59:49.051Z,6.53
2022-11-30T09:04:51.826Z,6.57
2022-11-30T09:09:53.800Z,6.70
2022-11-30T09:14:58.207Z,6.55
2022-11-30T09:20:01.301Z,6.14
2022-11-30T09:25:03.356Z,6.49
2022-11-30T09:30:06.033Z,6.35
2022-11-30T09:35:12.838Z,6.33
2022-11-30T09:40:24.949Z,6.25
2022-11-30T09:45:32.236Z,6.14
2022-11-30T09:50:39.916Z,6.41
2022-11-30T09:55:43.804Z,6.42
2022-11-30T10:00:45.688Z,6.28
2022-11-30T10:05:56.955Z,6.46
2022-11-30T10:11:22.395Z,6.43
2022-11-30T10:16:30.392Z,6.52
2022-11-30T10:21:50.988Z,6.50
2022-11-30T10:26:57.548Z,6.44
2022-11-30T10:32:01.268Z,6.39
2022-11-30T10:37:03.288Z,6.57
2022-11-30T10:42:16.015Z,6.61
2022-11-30T10:47:22.607Z,6.58
2022-11-30T10:52:29.022Z,6.69
2022-11-30T10:57:32.392Z,6.61
2022-11-30T11:02:39.323Z,6.66
2022-11-30T11:07:45.585Z,7.00
2022-11-30T11:12:53.072Z,6.91
2022-11-30T11:18:12.841Z,6.87
2022-11-30T11:23:52.375Z,6.98
2022-11-30T11:28:57.004Z,7.10
2022-11-30T11:33:58.985Z,6.97
2022-11-30T11:39:01.671Z,6.84
2022-11-30T11:44:09.615Z,6.86
2022-11-30T11:49:32.608Z,7.02
2022-11-30T11:54:48.748Z,6.93
2022-11-30T12:00:01.186Z,6.86
2022-11-30T12:05:16.052Z,7.18
2022-11-30T12:10:52.297Z,7.07
2022-11-30T12:15:57.511Z,7.05
2022-11-30T12:21:14.661Z,6.82
2022-11-30T12:26:22.544Z,7.05
2022-11-30T12:31:40.150Z,7.02
2022-11-30T12:36:58.995Z,7.11
2022-11-30T12:42:40.163Z,6.93
2022-11-30T12:47:51.177Z,6.90
2022-11-30T12:53:20.274Z,6.60
2022-11-30T12:58:32.056Z,6.52
2022-11-30T13:03:41.952Z,6.14
2022-11-30T13:08:57.107Z,6.61
2022-11-30T13:14:00.835Z,6.60
2022-11-30T13:19:22.993Z,6.86
2022-11-30T13:24:35.544Z,6.81
2022-11-30T13:30:21.935Z,6.80
2022-11-30T13:35:29.795Z,6.95
2022-11-30T13:40:32.567Z,6.78
2022-11-30T13:45:36.412Z,6.55
2022-11-30T13:50:41.179Z,7.07
2022-11-30T13:55:43.179Z,7.04
2022-11-30T14:06:41.572Z,6.99
2022-11-30T14:11:45.726Z,6.81
2022-11-30T14:16:48.345Z,7.00
2022-11-30T14:21:50.248Z,6.63
2022-11-30T14:26:52.856Z,6.67
2022-11-30T14:32:00.452Z,6.67
2022-11-30T14:37:27.148Z,6.43
2022-11-30T14:42:31.073Z,6.44
2022-11-30T14:47:35.805Z,6.68
2022-11-30T14:53:22.133Z,6.27
2022-11-30T14:58:44.938Z,6.54
2022-11-30T15:03:49.520Z,6.40
2022-11-30T15:08:54.474Z,6.19
2022-11-30T15:14:07.280Z,6.38
2022-11-30T15:19:25.741Z,6.42
2022-11-30T15:24:29.663Z,6.30
2022-11-30T15:29:39.584Z,6.43
2022-11-30T15:34:46.776Z,6.49
2022-11-30T15:39:52.562Z,6.41
2022-11-30T15:45:28.222Z,6.42
2022-11-30T15:50:34.835Z,6.40
2022-11-30T15:55:39.728Z,6.40
2022-11-30T16:00:41.662Z,6.51
2022-11-30T16:05:57.063Z,6.57
2022-11-30T16:11:01.980Z,6.75
2022-11-30T16:16:13.744Z,6.74
2022-11-30T16:21:19.416Z,6.66
2022-11-30T16:26:43.677Z,6.57
2022-11-30T16:31:44.919Z,6.43
2022-11-30T16:36:47.029Z,6.12
2022-11-30T16:41:50.453Z,6.45
2022-11-30T16:46:54.002Z,5.99
2022-11-30T16:51:56.031Z,6.08
2022-11-30T16:56:57.981Z,6.24
2022-11-30T17:02:00.355Z,5.94
2022-11-30T17:07:03.352Z,5.84
2022-11-30T17:12:05.314Z,6.43
2022-11-30T17:17:07.586Z,6.30
2022-11-30T17:22:09.523Z,6.49
2022-11-30T17:27:12.421Z,6.65
2022-11-30T17:32:14.316Z,7.02
2022-11-30T17:37:16.337Z,7.09
2022-11-30T17:42:18.308Z,7.12
2022-11-30T17:47:22.158Z,7.19
2022-11-30T17:52:24.753Z,6.91
2022-11-30T17:57:26.811Z,7.09
2022-11-30T18:02:28.775Z,7.25
2022-11-30T18:07:30.824Z,7.28
2022-11-30T18:12:33.568Z,7.25
2022-11-30T18:17:35.743Z,7.29
2022-11-30T18:22:37.621Z,7.19
2022-11-30T18:27:39.603Z,7.29
2022-11-30T18:32:41.421Z,7.30
2022-11-30T18:37:44.054Z,7.17
2022-11-30T18:42:47.951Z,7.10
2022-11-30T18:47:50.064Z,7.07
2022-11-30T18:52:52.302Z,7.19
2022-11-30T18:57:54.358Z,6.97
2022-11-30T19:02:56.339Z,6.90
2022-11-30T19:08:07.608Z,6.74
2022-11-30T19:13:09.615Z,6.65
2022-11-30T19:18:11.637Z,6.38
2022-11-30T19:23:13.580Z,6.53
2022-11-30T19:28:15.799Z,6.36
2022-11-30T19:33:17.862Z,6.41
2022-11-30T19:38:19.908Z,6.31
2022-11-30T19:43:21.841Z,6.49
2022-11-30T19:48:23.773Z,6.40
2022-11-30T19:53:25.928Z,6.36
2022-11-30T19:58:30.374Z,6.37
2022-11-30T20:03:35.719Z,6.35
2022-11-30T20:08:38.456Z,6.40
2022-11-30T20:13:40.568Z,6.33
2022-11-30T20:18:46.382Z,5.96
2022-11-30T20:23:51.202Z,6.01
2022-11-30T20:28:53.765Z,6.13
2022-11-30T20:33:55.957Z,5.93
2022-11-30T20:38:59.280Z,6.01
2022-11-30T20:44:01.349Z,6.08
2022-11-30T20:49:11.067Z,6.08
2022-11-30T20:54:13.497Z,6.10
2022-11-30T20:59:19.577Z,6.06
2022-11-30T21:04:23.319Z,5.79
2022-11-30T21:09:25.305Z,5.81
2022-11-30T21:14:27.373Z,5.85
2022-11-30T21:19:29.453Z,5.81
2022-11-30T21:24:31.403Z,6.04
2022-11-30T21:29:33.582Z,5.95
2022-11-30T21:34:35.540Z,6.19
2022-11-30T21:39:37.568Z,6.01
2022-11-30T21:44:39.432Z,6.28
2022-11-30T21:49:41.406Z,6.06
2022-11-30T21:54:43.501Z,6.25
2022-11-30T21:59:45.728Z,6.28
2022-11-30T22:04:47.868Z,6.23
2022-11-30T22:09:49.972Z,6.49
2022-11-30T22:14:52.030Z,6.52
2022-11-30T22:19:53.932Z,6.51
2022-11-30T22:24:55.933Z,6.78
2022-11-30T22:29:57.960Z,6.80
2022-11-30T22:34:59.852Z,6.79
2022-11-30T22:40:01.739Z,6.88
2022-11-30T22:45:04.442Z,6.97
2022-11-30T22:50:09.970Z,6.99
2022-11-30T22:55:12.286Z,6.84
2022-11-30T23:00:16.071Z,6.75
2022-11-30T23:05:17.903Z,7.05
2022-11-30T23:10:19.869Z,7.10
2022-11-30T23:15:21.909Z,7.07
2022-11-30T23:20:23.843Z,6.91
2022-11-30T23:25:25.705Z,7.04
2022-11-30T23:30:27.608Z,6.82
2022-11-30T23:35:29.467Z,6.68
2022-11-30T23:40:31.796Z,6.84
2022-11-30T23:45:33.715Z,6.49
2022-11-30T23:50:35.948Z,6.55
2022-11-30T23:55:38.077Z,6.22
